AAL2149 KORD-KCLT
Flight info
| Callsign | AAL2149 |
|---|---|
| Flight time | N/A |
| Altitude | 33000 |
| Route | EARND ELANR EMMLY ETAME EMEGE FLM TAFTT PARQR4 |
| Aircraft | B738/M-SDE2E3FGHIRWXY/LB1 |
Departure
| Time | 2026-04-30 22:08 |
|---|---|
| Airport | Chicago O'Hare International Airport (KORD) |
Arrival
| Time | N/A |
|---|---|
| Airport | Charlotte Douglas International Airport (KCLT) |
| Time | Latitude | Longitude | Altitude | Speed | Heading |
|---|---|---|---|---|---|
| 2026-04-30 21:51 | 41.97447 | -87.90098 | 668 ft | 0 kts | 90° |
| 2026-04-30 22:00 | 41.97447 | -87.90109 | 667 ft | 4 kts | 95° |
| 2026-04-30 22:00 | 41.97453 | -87.90142 | 665 ft | 4 kts | 131° |
| 2026-04-30 22:01 | 41.97474 | -87.90159 | 665 ft | 4 kts | 173° |
| 2026-04-30 22:01 | 41.97493 | -87.90160 | 668 ft | 1 kts | 180° |
| 2026-04-30 22:01 | 41.97472 | -87.90160 | 664 ft | 4 kts | 180° |
| 2026-04-30 22:01 | 41.97447 | -87.90160 | 666 ft | 1 kts | 180° |
| 2026-04-30 22:02 | 41.97446 | -87.90160 | 666 ft | 0 kts | 180° |
| 2026-04-30 22:03 | 41.97437 | -87.90160 | 667 ft | 5 kts | 180° |
| 2026-04-30 22:03 | 41.97384 | -87.90161 | 668 ft | 10 kts | 180° |
| 2026-04-30 22:04 | 41.97292 | -87.90160 | 668 ft | 16 kts | 179° |
| 2026-04-30 22:04 | 41.97167 | -87.90132 | 668 ft | 20 kts | 174° |
| 2026-04-30 22:04 | 41.97041 | -87.90372 | 667 ft | 20 kts | 270° |
| 2026-04-30 22:05 | 41.97042 | -87.90553 | 667 ft | 19 kts | 270° |
| 2026-04-30 22:05 | 41.97040 | -87.90729 | 667 ft | 18 kts | 269° |
| 2026-04-30 22:05 | 41.97040 | -87.90898 | 667 ft | 18 kts | 270° |
| 2026-04-30 22:05 | 41.97040 | -87.91062 | 668 ft | 17 kts | 270° |
| 2026-04-30 22:06 | 41.97041 | -87.91220 | 668 ft | 17 kts | 270° |
| 2026-04-30 22:06 | 41.97038 | -87.91487 | 669 ft | 19 kts | 270° |
| 2026-04-30 22:06 | 41.97039 | -87.91676 | 669 ft | 22 kts | 268° |
| 2026-04-30 22:07 | 41.97036 | -87.91901 | 668 ft | 26 kts | 272° |
| 2026-04-30 22:07 | 41.96994 | -87.92077 | 666 ft | 20 kts | 193° |
| 2026-04-30 22:07 | 41.96905 | -87.92054 | 668 ft | 12 kts | 112° |
| 2026-04-30 22:07 | 41.96902 | -87.91764 | 669 ft | 63 kts | 89° |
| 2026-04-30 22:08 | 41.96904 | -87.90859 | 666 ft | 128 kts | 90° |
| 2026-04-30 22:08 | 41.96904 | -87.89448 | 846 ft | 164 kts | 90° |
| 2026-04-30 22:08 | 41.96815 | -87.87934 | 1666 ft | 167 kts | 105° |
| 2026-04-30 22:08 | 41.96202 | -87.86575 | 2292 ft | 173 kts | 133° |
| 2026-04-30 22:09 | 41.95662 | -87.85021 | 2663 ft | 201 kts | 99° |
| 2026-04-30 22:09 | 41.95313 | -87.83085 | 2924 ft | 226 kts | 120° |
| 2026-04-30 22:09 | 41.94216 | -87.81513 | 3219 ft | 239 kts | 152° |
| 2026-04-30 22:09 | 41.92644 | -87.80532 | 3498 ft | 259 kts | 163° |
| 2026-04-30 22:10 | 41.90912 | -87.79717 | 4148 ft | 266 kts | 165° |
| 2026-04-30 22:10 | 41.89156 | -87.78927 | 5018 ft | 267 kts | 165° |
| 2026-04-30 22:10 | 41.87382 | -87.78127 | 5822 ft | 270 kts | 165° |
| 2026-04-30 22:10 | 41.85590 | -87.77311 | 6605 ft | 273 kts | 165° |
| 2026-04-30 22:11 | 41.81957 | -87.75635 | 8177 ft | 279 kts | 165° |
| 2026-04-30 22:11 | 41.80111 | -87.74777 | 8943 ft | 283 kts | 165° |
| 2026-04-30 22:11 | 41.78243 | -87.73905 | 9737 ft | 286 kts | 165° |
| 2026-04-30 22:12 | 41.76350 | -87.73020 | 10359 ft | 293 kts | 165° |
| 2026-04-30 22:12 | 41.74349 | -87.72089 | 10525 ft | 316 kts | 165° |
| 2026-04-30 22:12 | 41.72196 | -87.71087 | 10705 ft | 338 kts | 165° |
| 2026-04-30 22:12 | 41.69908 | -87.70019 | 10893 ft | 358 kts | 165° |
| 2026-04-30 22:13 | 41.67518 | -87.68898 | 11276 ft | 369 kts | 165° |
| 2026-04-30 22:13 | 41.65112 | -87.67767 | 11880 ft | 374 kts | 165° |
| 2026-04-30 22:13 | 41.62648 | -87.66609 | 12541 ft | 377 kts | 166° |
| 2026-04-30 22:13 | 41.60160 | -87.65441 | 13194 ft | 381 kts | 166° |
| 2026-04-30 22:14 | 41.57641 | -87.64263 | 13832 ft | 386 kts | 166° |
| 2026-04-30 22:14 | 41.55087 | -87.63070 | 14416 ft | 391 kts | 166° |
| 2026-04-30 22:14 | 41.52501 | -87.61862 | 14958 ft | 397 kts | 166° |
| 2026-04-30 22:14 | 41.49874 | -87.60637 | 15520 ft | 403 kts | 166° |
| 2026-04-30 22:15 | 41.47209 | -87.59396 | 16130 ft | 408 kts | 166° |
| 2026-04-30 22:15 | 41.44513 | -87.58142 | 16720 ft | 413 kts | 167° |
| 2026-04-30 22:15 | 41.41767 | -87.57004 | 17277 ft | 414 kts | 173° |
| 2026-04-30 22:15 | 41.38930 | -87.56407 | 17830 ft | 413 kts | 180° |
| 2026-04-30 22:16 | 41.36058 | -87.55964 | 18399 ft | 418 kts | 180° |
| 2026-04-30 22:16 | 41.33156 | -87.55520 | 18902 ft | 422 kts | 180° |
| 2026-04-30 22:17 | 41.24326 | -87.54028 | 20480 ft | 431 kts | 179° |
| 2026-04-30 22:17 | 41.21337 | -87.53504 | 20958 ft | 435 kts | 179° |
| 2026-04-30 22:17 | 41.15299 | -87.52125 | 21940 ft | 445 kts | 175° |
| 2026-04-30 22:18 | 41.12255 | -87.51287 | 22409 ft | 449 kts | 175° |
| 2026-04-30 22:18 | 41.06084 | -87.49559 | 23165 ft | 458 kts | 176° |
| 2026-04-30 22:19 | 40.99800 | -87.47841 | 23999 ft | 463 kts | 176° |
| 2026-04-30 22:19 | 40.96638 | -87.46990 | 24413 ft | 464 kts | 177° |
| 2026-04-30 22:19 | 40.90275 | -87.45291 | 25159 ft | 469 kts | 177° |
| 2026-04-30 22:20 | 40.87071 | -87.44438 | 25469 ft | 472 kts | 178° |
| 2026-04-30 22:20 | 40.80585 | -87.42717 | 26093 ft | 477 kts | 178° |
| 2026-04-30 22:20 | 40.77336 | -87.41851 | 26574 ft | 476 kts | 178° |
| 2026-04-30 22:21 | 40.74084 | -87.40985 | 26912 ft | 478 kts | 178° |
| 2026-04-30 22:21 | 40.70849 | -87.40129 | 27149 ft | 482 kts | 178° |
| 2026-04-30 22:21 | 40.67548 | -87.39256 | 27445 ft | 485 kts | 177° |
| 2026-04-30 22:21 | 40.64245 | -87.38381 | 27810 ft | 485 kts | 177° |
| 2026-04-30 22:22 | 40.60927 | -87.37502 | 28116 ft | 487 kts | 177° |
| 2026-04-30 22:22 | 40.57595 | -87.36622 | 28415 ft | 489 kts | 177° |
| 2026-04-30 22:22 | 40.54262 | -87.35740 | 28832 ft | 488 kts | 177° |
| 2026-04-30 22:22 | 40.50942 | -87.34862 | 29329 ft | 485 kts | 178° |
| 2026-04-30 22:23 | 40.47646 | -87.33909 | 29820 ft | 488 kts | 172° |
| 2026-04-30 22:23 | 40.44422 | -87.32356 | 30197 ft | 499 kts | 163° |
| 2026-04-30 22:23 | 40.41352 | -87.30144 | 30466 ft | 510 kts | 153° |
| 2026-04-30 22:23 | 40.38445 | -87.27445 | 30776 ft | 513 kts | 151° |
| 2026-04-30 22:24 | 40.35567 | -87.24676 | 31049 ft | 514 kts | 151° |
| 2026-04-30 22:24 | 40.32685 | -87.21894 | 31327 ft | 514 kts | 151° |
| 2026-04-30 22:24 | 40.29794 | -87.19131 | 31636 ft | 514 kts | 152° |
| 2026-04-30 22:24 | 40.26897 | -87.16396 | 31930 ft | 513 kts | 152° |
| 2026-04-30 22:25 | 40.23989 | -87.13677 | 32214 ft | 514 kts | 152° |
| 2026-04-30 22:25 | 40.21077 | -87.10971 | 32481 ft | 513 kts | 153° |
| 2026-04-30 22:25 | 40.18164 | -87.08273 | 32765 ft | 513 kts | 153° |
| 2026-04-30 22:25 | 40.15249 | -87.05574 | 33065 ft | 514 kts | 153° |
| 2026-04-30 22:26 | 40.06431 | -86.97418 | 33038 ft | 517 kts | 153° |
| 2026-04-30 22:27 | 40.00610 | -86.92034 | 33047 ft | 511 kts | 153° |
| 2026-04-30 22:27 | 39.91741 | -86.84385 | 33048 ft | 508 kts | 158° |
| 2026-04-30 22:28 | 39.82732 | -86.77154 | 33059 ft | 512 kts | 157° |
| 2026-04-30 22:29 | 39.73757 | -86.69495 | 33032 ft | 526 kts | 148° |
| 2026-04-30 22:29 | 39.71091 | -86.66164 | 33077 ft | 537 kts | 139° |
| 2026-04-30 22:30 | 39.63102 | -86.49248 | 33065 ft | 556 kts | 123° |
| 2026-04-30 22:31 | 39.57502 | -86.36079 | 33049 ft | 555 kts | 124° |
| 2026-04-30 22:32 | 39.47990 | -86.14413 | 33057 ft | 551 kts | 124° |
| 2026-04-30 22:33 | 39.38481 | -85.92895 | 33064 ft | 551 kts | 124° |
| 2026-04-30 22:35 | 39.28938 | -85.71437 | 33075 ft | 554 kts | 125° |
| 2026-04-30 22:36 | 39.19292 | -85.49897 | 33071 ft | 556 kts | 125° |
| 2026-04-30 22:37 | 39.11523 | -85.32656 | 33071 ft | 557 kts | 125° |
| 2026-04-30 22:38 | 39.03711 | -85.15411 | 33066 ft | 558 kts | 125° |
| 2026-04-30 22:39 | 38.97833 | -85.02501 | 33064 ft | 557 kts | 126° |
| 2026-04-30 22:40 | 38.86063 | -84.76811 | 33064 ft | 558 kts | 126° |
| 2026-04-30 22:41 | 38.76186 | -84.55393 | 33006 ft | 558 kts | 126° |
| 2026-04-30 22:43 | 38.64112 | -84.29919 | 33070 ft | 553 kts | 135° |
| 2026-04-30 22:44 | 38.53697 | -84.15783 | 33079 ft | 546 kts | 142° |
| 2026-04-30 22:45 | 38.37909 | -83.94594 | 33080 ft | 552 kts | 142° |
| 2026-04-30 22:47 | 38.21974 | -83.73361 | 33072 ft | 556 kts | 142° |
| 2026-04-30 22:48 | 38.11361 | -83.59047 | 33077 ft | 556 kts | 142° |
| 2026-04-30 22:49 | 37.95399 | -83.37874 | 33070 ft | 551 kts | 143° |
| 2026-04-30 22:51 | 37.79474 | -83.16899 | 33055 ft | 551 kts | 143° |
| 2026-04-30 22:52 | 37.71498 | -83.06437 | 33045 ft | 551 kts | 143° |
| 2026-04-30 22:53 | 37.60834 | -82.92510 | 33045 ft | 552 kts | 143° |
| 2026-04-30 22:53 | 37.52810 | -82.82085 | 33039 ft | 552 kts | 144° |
| 2026-04-30 22:55 | 37.39128 | -82.65255 | 33002 ft | 548 kts | 146° |
| 2026-04-30 22:56 | 37.28156 | -82.51871 | 32570 ft | 557 kts | 144° |
| 2026-04-30 22:56 | 37.19997 | -82.41916 | 31749 ft | 544 kts | 146° |
| 2026-04-30 22:57 | 37.14519 | -82.35310 | 31257 ft | 548 kts | 144° |
| 2026-04-30 22:57 | 37.09936 | -82.29688 | 30768 ft | 552 kts | 144° |
| 2026-04-30 22:58 | 37.04394 | -82.23119 | 30347 ft | 543 kts | 148° |
| 2026-04-30 22:59 | 36.94980 | -82.15956 | 29977 ft | 524 kts | 164° |
| 2026-04-30 22:59 | 36.85360 | -82.09447 | 29991 ft | 525 kts | 162° |